Create Custom Reports and Graphics: Custom Report

North/Central Map

Map

15 Minute Data

South County Map

Map

15 Minute Data

Northern Sonoma County Latest

25 Stations

15 Minute Data | America/Los_Angeles
as of 5/10/26 7:05 AM PDT
Station Date Time Temp (°F) RH (%) Dew Pt (°F) Wind Spd (mph) Wind Dir (°) Wind Gust (mph) Latest Rain (In) Daily Rain (In) Daily Max Temp (°F) Daily Min Temp (°F)
Bavarian Lion EFW 5/10/26 0700 50.8   2.0 - - - - - 0.00 0.00 51.3   0.5 48.0   0.9
Rockpile Lower (Cooley) 5/10/26 0645 53.1   4.4 83   23 48.1   4.2 1.0   0.7 ENE | 76 3.4   0.7 0.00 0.00 56.3   2.0 51.2   2.2
Rockpile Upper (Cooley) 5/10/26 0700 51.9   2.1 79   15 45.7   3.4 9.5   5.1 NNW | 338 18.2   0.7 0.00 0.00 54.3   4.1 49.8   1.1
Lower Dry Creek Valley 5/10/26 0700 51.5   2.4 100   0 51.5   2.4 0.4   0.4 WNW | 282 3.0   3.0 0.00 0.00 52.6   0.9 50.7   3.8
Geyserville-South (Nervo Station) 5/10/26 0700 51.0   2.2 - - 0.1   0.1 NE | 47 1.7   1.7 0.00 0.00 52.3   2.3 49.8   1.1
Franz Valley (Stornetta) 5/10/26 0700 50.2   4.2 98   1 49.6   4.5 1.2   1.1 NNW | 334 2.6   1.5 0.00 0.00 50.5   0.0 47.3   1.9
Geyserville (Ranch 3) 5/10/26 0700 52.1   0.9 100   3 52.1   1.6 0.3   0.2 E | 99 1.5   0.1 0.00 0.00 53.6   0.2 50.9   2.4
Geyserville-North (Hoffman) 5/10/26 0700 52.5   2.9 94   0 51.0   2.8 0.5   0.0 SW | 235 1.6   0.3 0.00 0.00 53.9   2.0 48.8   2.4
Knights Valley (Bavarian Lion) 5/10/26 0700 50.2   3.0 98   0 49.5   3.0 1.0   1.0 WNW | 294 2.6   2.6 0.00 0.00 50.4   0.3 46.5   0.1
HWY 128/Chalk Hill Rd (Landslide) 5/10/26 0700 51.3   2.6 100   3 51.4   3.4 1.8   1.6 WSW | 238 3.8   2.8 0.00 0.00 51.4   0.3 50.4   3.9
Newman Knights Valley 5/10/26 0700 51.4   2.9 88   0 48.2   2.9 0.7   0.5 WSW | 238 2.6   1.3 0.00 0.00 52.8   1.7 48.7   1.1
Jimtown-North (Piccolo Ranch 15) 5/10/26 0700 51.1   2.1 100   0 51.1   2.1 0.1   0.1 N | 7 1.3   1.3 0.00 0.00 52.0   1.0 48.5   2.1
Peterson (Ranch 09) 5/10/26 0700 50.6   0.4 96   5 49.6   1.1 1.7   1.6 NNE | 28 3.1   2.3 0.00 0.00 51.8   0.9 50.1   3.1
Cloverdale-SE (Ranch 38) 5/10/26 0700 48.9   3.1 97   11 48.2   0.2 1.0   0.6 SSE | 159 3.1   0.9 0.00 0.00 55.2   2.5 47.7   3.5
Geyserville-East (Ranch 40) 5/10/26 0700 49.2   5.3 100   13 49.1   1.4 1.2   0.6 NNE | 30 3.0   0.1 0.00 0.00 51.8   4.1 48.7   1.1
N Chalk Hill Rd (Ranch 63) 5/10/26 0700 48.8   1.3 100   0 48.8   1.3 1.1   1.1 NE | 48 2.3   1.5 0.00 0.00 50.1   0.2 48.5   3.2
Cloverdale-East (Ranch 83) 5/10/26 0700 50.1   1.0 - - 0.8   0.0 E | 93 3.0   0.5 0.00 0.00 53.7   0.8 48.1   0.2
Crazy Creek Ranch 5/10/26 0700 51.5   2.9 99   0 51.2   2.9 0.8   0.4 S | 180 2.3   0.4 0.00 0.00 51.8   0.1 48.7   1.2
Lytton East (Hill 5) 5/10/26 0700 50.7   2.0 98   3 50.2   2.8 1.8   0.2 NW | 306 4.0   1.4 0.00 0.00 51.1   1.4 50.4   3.2
Lytton East (Shop Hill Bottom) 5/10/26 0700 50.9   2.5 100   2 50.9   2.9 1.0   0.8 NNE | 22 3.2   1.9 0.00 0.00 51.2   0.1 50.4   5.2
Lytton West Hill (23PS) 5/10/26 0700 51.2   1.7 100   5 51.2   3.0 2.4   0.4 NW | 312 3.7   0.8 0.00 0.00 51.8   0.4 50.7   2.7
Lytton West Lower (Lew 6) 5/10/26 0700 51.2   4.7 100   0 51.2   4.7 1.8   1.8 WNW | 282 3.6   3.4 0.00 0.00 51.3   2.1 48.3   4.0
Whitton Ranch (201e) 5/10/26 0700 51.2   3.1 100   0 51.2   3.1 0.1   0.1 N | 4 0.7   0.3 0.00 0.00 51.5   1.8 44.2   1.2
Upper Dry Creek Valley 5/10/26 0415 50.8   3.8 96   2 49.8   4.4 1.5   1.5 SSW | 194 3.0   3.0 0.00 0.00 51.4   0.1 48.9   2.1
Big River 5/10/26 0700 51.6   1.9 100   0 51.6   2.0 0.4   0.4 NW | 325 2.4   1.9 0.00 0.00 51.8   0.4 50.5   2.1
Max     53.1 100 52.1 9.5 - 18.2 0.00 0.00 56.3 51.2
Avg     51.0 97 50.1 1.3 - 3.3 0.00 - - -
Min     48.8 79 45.7 0.1 - 0.7 0.00 0.00 50.1 44.2

Central Sonoma County Latest

37 Stations

15 Minute Data | America/Los_Angeles
as of 5/10/26 7:05 AM PDT
Station Date Time Temp (°F) RH (%) Dew Pt (°F) Wind Spd (mph) Wind Dir (°) Wind Gust (mph) Latest Rain (In) Daily Rain (In) Daily Max Temp (°F) Daily Min Temp (°F)
Windsor-NW (Ranch 8) 5/10/26 0700 51.5   2.4 88   2 48.0   3.0 1.7   1.5 SW | 225 3.3   1.8 0.00 0.00 52.1   0.1 51.4   3.2
Windsor-East (Ranch 16) 5/10/26 0700 52.2   5.6 94   6 50.6   4.1 0.5   0.5 NE | 48 1.9   1.9 0.00 0.00 52.5   3.3 51.6   6.4
Mark West-North (Ranch 14) 5/10/26 0700 51.9   0.6 96   2 50.7   1.1 0.4   0.4 NNW | 332 1.4   1.4 0.00 0.00 52.2   0.7 51.4   4.4
Windsor-SE (Silk Rd) 5/10/26 0700 51.9   4.6 98   1 51.3   4.4 0.9   0.7 ENE | 65 2.8   1.8 0.00 0.00 52.4   3.5 51.6   7.1
Fulton-NW (Ranch 5) 5/10/26 0700 52.0   4.0 96   4 50.8   2.8 0.2   0.2 SSE | 155 1.1   1.1 0.00 0.00 52.8   2.3 51.4   5.1
Bisordi (Fulton) 5/10/26 0700 52.2   3.2 93   3 50.3   2.4 1.5   0.9 NNE | 20 3.4   2.0 0.00 0.00 52.8   2.8 51.8   5.6
Windsor-South (Laughlin Rd) 5/10/26 0700 51.7   2.8 94   0 49.9   2.7 - - - 0.00 0.00 52.6   1.5 51.2   4.7
Fulton-SE (Barnes Rd) 5/10/26 0700 52.5   3.4 94   1 50.8   3.2 0.4   0.3 W | 260 2.1   0.0 0.00 0.00 53.0   0.0 51.8   4.6
Fulton-SW (Ranch 21) 5/10/26 0700 51.5   2.5 0   61 -60.8   67.5 0.5   0.1 E | 84 1.8   0.2 0.00 0.00 52.1   2.1 50.9   4.7
NW Santa Rosa (Piner Road) 5/10/26 0700 51.1   3.6 100   0 51.1   3.6 0.5   0.5 SE | 131 1.8   1.2 0.00 0.00 52.1   2.7 51.0   5.5
River Rd South (Denner Ranch) 5/10/26 0700 51.0   2.9 0   0 -67.1   1.6 1.2   1.2 WSW | 247 2.4   2.4 - - 51.5   2.5 50.6   6.1
West Santa Rosa (LOV Vineyard) 5/10/26 0700 51.2   2.9 100   3 51.2   3.8 0.4   0.4 ENE | 65 2.0   2.0 0.00 0.00 51.7   1.8 50.8   5.1
Guerneville Rd (Prokopakis) 5/10/26 0700 51.7   2.6 97   0 51.0   2.7 - - - 0.00 0.00 52.6   2.2 51.4   4.8
SunnyView Vineyard (SCWC) 5/10/26 0700 51.0   2.1 100   2 51.0   2.7 0.4   0.4 ENE | 67 2.5   2.5 0.00 0.00 51.7   1.7 50.7   7.1
Guerneville Rd West (Balletto) 5/10/26 0700 51.3   3.4 100   2 51.2   3.8 0.4   0.3 NNE | 19 2.2   1.1 0.00 0.00 51.9   2.5 51.0   5.5
Sanchietti Ranch 5/10/26 0700 52.0   2.9 97   0 51.2   3.0 1.0   0.1 NNE | 31 2.2   0.1 0.00 0.00 52.7   2.7 51.8   5.7
Occidental Rd (Sebastopol) 5/10/26 0700 50.8   3.5 100   0 50.8   3.5 0.4   0.2 ENE | 62 2.2   1.1 0.00 0.00 51.5   3.2 50.5   5.5
Harper's Rest (Windsor-West) 5/10/26 0700 49.9   1.8 98   1 49.3   2.1 0.9   0.9 WNW | 285 2.7   2.7 0.00 0.00 50.7   1.7 49.7   5.5
Lower Westside Rd (Ranch 12) 5/10/26 0700 50.9   4.2 100   2 50.9   4.6 2.1   2.1 WSW | 244 3.3   3.3 0.00 0.00 52.1   1.9 50.5   5.1
Guerneville (Laughlin Rd) 5/10/26 0700 51.4   2.0 96   2 50.3   1.5 1.4   1.3 S | 182 3.2   2.2 0.00 0.00 52.9   3.0 50.2   2.0
Korbel (Winery) 5/10/26 0700 51.9   1.9 95   2 50.7   1.2 0.0   0.0 N | 0 0.0   0.0 0.00 0.00 52.9   0.8 51.5   1.6
Forestville (Shone Farms) 5/10/26 0700 51.2   2.5 98   2 50.5   2.9 0.6   0.4 E | 85 2.1   0.1 0.00 0.00 53.7   2.9 48.9   3.0
Forestville-NE (Ranch 30) 5/10/26 0700 50.5   3.3 100   0 50.4   3.4 0.6   0.4 NNW | 336 3.7   2.6 0.00 0.00 51.0   1.7 49.7   5.0
Foggy Bend (Ranch 41) 5/10/26 0700 51.4   3.1 96   0 50.5   3.0 1.5   1.0 NW | 320 2.6   1.4 0.00 0.00 52.2   1.5 51.0   4.8
Last Stop 5/10/26 0700 50.9   2.1 98   1 50.3   1.9 1.2   1.0 WNW | 288 2.7   1.1 0.00 0.00 51.3   2.5 50.6   6.8
Green Valley Vineyard 5/10/26 0700 49.8   1.3 99   1 49.4   1.6 0.9   0.6 W | 275 2.6   0.0 0.00 0.00 50.5   1.2 49.3   3.9
Park Royal 5/10/26 0700 50.7   1.9 100   3 50.6   2.7 - - - 0.00 0.00 52.0   1.9 50.6   5.4
Merino 5/10/26 0700 51.4   4.6 100   0 51.4   4.6 0.3   0.2 S | 183 1.5   0.6 0.00 0.00 52.0   4.2 51.1   7.5
Green Valley (Sanchietti) 5/10/26 0700 51.4   4.5 - - - - - - - 51.7   2.3 49.1   5.0
Keefer Ranch (Green Valley) 5/10/26 0700 50.8   4.2 97   0 50.1   4.2 - - - 0.00 0.00 51.1   3.3 49.6   5.7
Graton-West (Dutton Ranch) 5/10/26 0700 51.0   3.0 100   0 51.0   3.0 1.9   1.8 N | 1 4.7   3.9 0.00 0.00 51.5   1.8 50.4   5.2
Graton-South (Mill Station Rd) 5/10/26 0700 50.5   4.8 99   0 50.2   4.9 0.0   0.0 NNE | 19 1.1   1.1 0.00 0.00 50.9   2.8 48.2   3.5
Occidental (Horseshoe Bend) 5/10/26 0700 47.6   4.8 100   6 47.6   3.1 - - - 0.00 0.00 49.1   4.0 46.6   2.7
Sexton Valley (Jacqueline's Blk) 5/10/26 0700 50.4   4.3 98   0 49.8   4.4 0.7   0.6 SSE | 166 2.3   1.7 0.00 0.00 50.8   3.3 48.6   4.3
Sebastopol Hills (Burnside Rd) 5/10/26 0700 49.2   0.5 100   1 49.2   0.6 0.1   0.1 E | 95 1.4   0.0 0.00 0.00 49.7   0.6 48.6   1.3
Pleasant Hill 5/10/26 0700 49.4   0.0 98   0 48.7   0.0 1.2   0.2 NE | 51 3.0   1.0 0.00 0.00 50.2   0.4 49.1   5.0
Seaview/Fort Ross (Hirsch) 5/10/26 0700 56.1   1.1 76   16 48.7   5.2 3.8   1.3 N | 3 6.5   1.8 0.00 0.00 56.1   2.5 45.4   9.0
Max     56.1 100 51.4 3.8 - 6.5 0.00 0.00 56.1 51.8
Avg     51.2 91 43.9 0.9 - 2.5 0.00 - - -
Min     47.6 0 -67.1 0.0 - 0.0 0.00 0.00 49.1 45.4

Southern Sonoma County Latest

20 Stations

15 Minute Data
as of 5/10/26 7:05 AM PDT
Station Date Time Temp (°F) RH (%) Dew Pt (°F) Wind Spd (mph) Wind Dir (°) Wind Gust (mph) Latest Rain (In) Daily Rain (In) Daily Min Temp (°F) Daily Max Temp (°F)
Upper Rincon Valley 5/10/26 0700 47.2   4.0 98   6 46.7   2.4 1.8   0.8 NNE | 16 2.8   1.1 0.00 0.00 45.0   4.5 52.4   2.8
Lower Bennett Valley 5/10/26 0700 49.4   5.3 100   0 49.4   5.3 1.4   1.4 N | 354 2.9   2.9 0.00 0.00 49.0   7.1 50.7   4.6
Kenwood (Wildwood) 5/10/26 0700 49.8   3.4 100   0 49.8   3.4 1.1   0.4 WSW | 239 2.7   0.4 0.00 0.00 48.8   3.2 51.4   1.2
Crane Creek (Ranch 62) 5/10/26 0700 50.7   2.5 100   1 50.6   2.7 1.6   1.6 SSE | 162 3.6   3.6 0.00 0.00 49.9   4.5 51.6   2.1
Rohnert Park-West (Stony Point) 5/10/26 0700 50.2   2.5 98   1 49.8   2.6 0.0   0.0 N | 0 0.0   1.0 0.00 0.00 49.8   7.1 51.8   4.1
Rice-Spivak Vineyard 5/10/26 0700 50.0   5.2 - - - - - - - 49.4   11.3 51.2   5.3
Cartograph Wines Base 5/10/26 0700 49.4   1.1 99   1 49.1   1.4 0.3   0.8 SE | 145 1.5   0.4 0.00 0.00 48.7   2.4 50.9   2.0
Cartograph Wines Remote 5/10/26 0700 49.9   2.3 - - - - - - - 49.3   5.7 51.8   4.2
Penngrove (Asellus) 5/10/26 0700 50.7   2.5 97   1 49.8   2.1 2.3   2.1 ESE | 109 4.8   2.0 0.00 0.00 50.4   7.9 52.1   2.3
Sonoma Valley (Bedrock) 5/10/26 0700 49.7   3.6 97   0 48.9   3.6 - - - 0.00 0.00 46.6   2.6 50.2   2.0
Sonoma-West (Arnold) 5/10/26 0700 51.2   1.9 100   0 51.2   1.9 1.7   1.7 WNW | 300 3.7   3.7 0.00 0.00 45.5   1.2 51.6   2.3
Sonoma Valley HS 5/10/26 0700 51.1   1.7 100   0 51.1   1.8 0.1   0.1 N | 355 1.3   1.3 0.00 0.00 49.4   3.3 51.8   1.4
Sonoma East (Bundschu01) 5/10/26 0700 51.4   4.7 94   0 49.8   4.7 2.4   2.4 NW | 321 5.0   4.2 0.00 0.00 50.2   5.6 52.0   2.0
Sonoma-SE (Napoli) 5/10/26 0700 51.8   5.1 94   0 50.1   5.0 1.5   1.5 W | 262 4.1   4.1 0.00 0.00 51.1   6.4 52.3   1.5
Schellville (Sasaki) 2/7/26 1900 53.4   2.2 88   10 49.9   1.0 3.3   1.8 SW | 225 5.8   4.0 0.00 0.00 47.0   0.8 62.8   8.4
Petaluma (Ranch 10) 5/10/26 0700 52.7   8.0 90   6 50.0   6.3 1.3   1.3 NW | 326 3.3   3.3 0.00 0.00 52.1   9.2 53.5   7.1
Carneros (Ranch 71) 5/10/26 0700 50.8   1.2 98   4 50.4   0.1 3.2   2.0 W | 281 5.6   2.1 0.00 0.00 50.4   0.2 51.4   0.9
Ricci Vineyards (Carneros) 5/10/26 0700 51.9   4.0 95   1 50.4   3.7 2.4   0.9 WNW | 282 4.4   2.1 0.00 0.00 49.4   5.1 52.1   3.3
Carneros Upper (Ranch 81) 5/10/26 0700 51.1   1.2 1   91 -56.4   106.5 2.9   2.9 W | 268 6.0   6.0 - - 50.6   0.5 51.4   1.3
Carneros Lower (Ranch 81) 5/10/26 0700 52.5   0.2 93   92 50.4   114.3 0.3   0.1 W | 268 2.0   0.1 0.00 0.00 50.8   4.1 52.6   0.1
Max     52.7 100 51.2 3.2 - 6.0 0.00 0.00 52.1 53.5
Avg     50.6 91 43.6 1.5 - 3.3 0.00 - - -
Min     47.2 1 -56.4 0.0 - 0.0 0.00 0.00 45.0 50.2

AQI Map

Map

Hourly Data